Time;durP1;ratioP1;P1;durP2;ratioP2;P2;SDS_P1;SDS_P2;PMS_P1;PMS_P2;Temp;Humidity;BMP_temperature;BMP_pressure;BME280_temperature;BME280_humidity;BME280_pressure;Samples;Min_cycle;Max_cycle;Signal;HPM_P1;HPM_P2
2022/08/10 00:03:51;;;;;;;6.20;2.30;;;;;17.50;97194.00;;;;8470120;27;20311;-68
2022/08/10 00:07:55;;;;;;;5.35;2.58;;;;;17.40;97185.00;;;;8476567;27;20224;-67
2022/08/10 00:11:58;;;;;;;6.45;2.53;;;;;17.30;97197.00;;;;8471869;27;20655;-67
2022/08/10 00:16:01;;;;;;;4.60;2.55;;;;;17.30;97201.00;;;;8478567;27;20250;-68
2022/08/10 00:20:07;;;;;;;2.58;2.38;;;;;17.30;97198.00;;;;8470955;27;20594;-68
2022/08/10 00:24:10;;;;;;;5.28;2.40;;;;;17.40;97193.00;;;;8473879;27;20274;-68
2022/08/10 00:28:14;;;;;;;3.58;2.63;;;;;17.30;97189.00;;;;8471284;27;20221;-68
2022/08/10 00:32:17;;;;;;;2.58;2.38;;;;;17.30;97187.00;;;;8471008;27;20313;-68
2022/08/10 00:36:22;;;;;;;2.60;2.40;;;;;17.30;97177.00;;;;8473898;27;20228;-66
2022/08/10 00:40:25;;;;;;;3.53;2.60;;;;;17.20;97181.00;;;;8471773;27;20227;-68
2022/08/10 00:44:42;;;;;;;4.80;2.83;;;;;17.10;97175.00;;;;8476492;27;20235;-68
2022/08/10 00:48:45;;;;;;;2.55;2.35;;;;;17.10;97169.00;;;;8468115;27;20228;-68
2022/08/10 00:53:04;;;;;;;2.75;2.53;;;;;17.10;97167.00;;;;8474472;27;20221;-68
2022/08/10 00:57:07;;;;;;;6.03;2.60;;;;;17.00;97165.00;;;;8475601;27;20315;-67
2022/08/10 01:01:20;;;;;;;4.10;2.67;;;;;16.90;97155.00;;;;8467029;27;20632;-66
2022/08/10 01:05:51;;;;;;;6.15;2.53;;;;;16.90;97164.00;;;;8474318;27;20766;-66
2022/08/10 01:10:09;;;;;;;2.33;2.15;;;;;16.90;97165.00;;;;8474650;27;20224;-67
2022/08/10 01:14:23;;;;;;;2.58;2.38;;;;;16.90;97159.00;;;;8470883;27;20232;-67
2022/08/10 01:18:43;;;;;;;4.88;2.65;;;;;17.00;97166.00;;;;8466658;27;20227;-67
2022/08/10 01:23:25;;;;;;;3.05;2.83;;;;;17.10;97161.00;;;;8468389;27;20227;-66
2022/08/10 01:27:36;;;;;;;3.97;2.70;;;;;17.10;97166.00;;;;8468249;27;20296;-66
2022/08/10 01:31:45;;;;;;;5.43;2.30;;;;;17.10;97168.00;;;;8470750;27;20225;-66
2022/08/10 01:35:55;;;;;;;3.03;2.67;;;;;17.10;97158.00;;;;8471796;27;20245;-67
2022/08/10 01:40:01;;;;;;;3.10;2.78;;;;;17.10;97158.00;;;;8470516;27;20223;-67
2022/08/10 01:44:10;;;;;;;3.80;2.58;;;;;17.00;97159.00;;;;8475769;27;21661;-67
2022/08/10 01:48:29;;;;;;;3.42;2.80;;;;;17.00;97160.00;;;;8471598;27;20300;-67
2022/08/10 01:52:35;;;;;;;4.88;2.55;;;;;17.00;97167.00;;;;8468257;27;21004;-67
2022/08/10 01:56:42;;;;;;;4.80;2.83;;;;;16.60;97170.00;;;;8462497;27;21208;-67
2022/08/10 02:00:48;;;;;;;8.95;6.38;;;;;16.40;97169.00;;;;8466070;27;20305;-67
2022/08/10 02:04:54;;;;;;;7.05;4.05;;;;;16.10;97161.00;;;;8462666;27;20223;-67
2022/08/10 02:09:01;;;;;;;4.07;2.92;;;;;16.00;97157.00;;;;8466315;27;20306;-67
2022/08/10 02:13:10;;;;;;;3.20;3.00;;;;;15.70;97166.00;;;;8471637;27;20269;-67
2022/08/10 02:17:16;;;;;;;3.20;2.97;;;;;15.70;97162.00;;;;8466435;27;20257;-67
2022/08/10 02:21:43;;;;;;;6.60;3.22;;;;;15.60;97159.00;;;;8473002;27;20232;-67
2022/08/10 02:26:09;;;;;;;5.43;3.33;;;;;15.50;97162.00;;;;8470144;27;20310;-66
2022/08/10 02:30:13;;;;;;;4.22;2.70;;;;;15.30;97167.00;;;;8468638;27;20213;-66
2022/08/10 02:34:17;;;;;;;4.60;3.25;;;;;14.90;97171.00;;;;8466516;27;20232;-67
2022/08/10 02:38:31;;;;;;;3.67;3.08;;;;;14.80;97166.00;;;;8469658;27;20308;-67
2022/08/10 02:42:59;;;;;;;3.33;3.13;;;;;14.90;97156.00;;;;8470599;27;20222;-66
2022/08/10 02:47:26;;;;;;;3.40;3.15;;;;;14.90;97160.00;;;;8471429;27;20226;-67
2022/08/10 02:51:42;;;;;;;5.60;3.22;;;;;15.00;97163.00;;;;8464425;27;20225;-66
2022/08/10 02:56:11;;;;;;;6.10;3.05;;;;;15.30;97161.00;;;;8462909;27;20231;-66
2022/08/10 03:00:16;;;;;;;6.63;3.03;;;;;15.60;97161.00;;;;8463893;27;20728;-66
2022/08/10 03:04:21;;;;;;;7.50;3.13;;;;;15.70;97164.00;;;;8422335;22;20225;-66
2022/08/10 03:08:46;;;;;;;3.05;2.85;;;;;15.30;97168.00;;;;8387456;28;20280;-68
2022/08/10 03:12:54;;;;;;;6.57;3.22;;;;;14.80;97157.00;;;;8391774;28;20556;-68
2022/08/10 03:16:59;;;;;;;6.35;3.30;;;;;14.50;97152.00;;;;8405594;28;20230;-67
2022/08/10 03:21:03;;;;;;;5.32;3.63;;;;;14.40;97160.00;;;;8394730;28;20224;-67
2022/08/10 03:25:13;;;;;;;3.70;3.40;;;;;14.30;97149.00;;;;8403975;28;20213;-67
2022/08/10 03:29:20;;;;;;;5.50;3.47;;;;;14.30;97146.00;;;;8395677;28;20236;-67
2022/08/10 03:33:26;;;;;;;5.57;3.13;;;;;14.30;97145.00;;;;8399206;28;20219;-68
2022/08/10 03:37:29;;;;;;;4.37;3.40;;;;;14.50;97149.00;;;;8400562;28;20236;-67
2022/08/10 03:41:36;;;;;;;5.97;3.33;;;;;14.80;97158.00;;;;8405717;28;20227;-67
2022/08/10 03:45:42;;;;;;;3.70;3.22;;;;;15.00;97157.00;;;;8400069;28;20220;-67
2022/08/10 03:49:59;;;;;;;6.90;3.28;;;;;15.10;97156.00;;;;8400019;28;20303;-68
2022/08/10 03:54:23;;;;;;;3.60;3.08;;;;;15.00;97160.00;;;;8395824;28;20231;-68
2022/08/10 03:58:26;;;;;;;3.97;3.13;;;;;15.00;97170.00;;;;8400854;28;20227;-68
2022/08/10 04:02:32;;;;;;;5.50;2.92;;;;;15.20;97162.00;;;;8395579;28;20692;-67
2022/08/10 04:06:55;;;;;;;7.90;3.20;;;;;15.40;97164.00;;;;8368618;28;20628;-68
2022/08/10 04:10:58;;;;;;;5.68;3.10;;;;;15.70;97166.00;;;;8376040;28;20221;-67
2022/08/10 04:15:02;;;;;;;4.63;3.38;;;;;15.80;97159.00;;;;8375612;28;20222;-68
2022/08/10 04:19:08;;;;;;;3.10;2.90;;;;;15.90;97163.00;;;;8376096;28;20674;-68
2022/08/10 04:23:16;;;;;;;3.30;3.03;;;;;16.10;97168.00;;;;8382097;28;20226;-68
2022/08/10 04:27:20;;;;;;;6.75;3.13;;;;;16.20;97180.00;;;;8391758;28;20221;-68
2022/08/10 04:31:28;;;;;;;3.35;2.97;;;;;16.30;97182.00;;;;8382913;28;20309;-68
2022/08/10 04:35:33;;;;;;;3.10;2.90;;;;;16.40;97184.00;;;;8381365;28;20233;-68
2022/08/10 04:39:37;;;;;;;7.22;3.05;;;;;16.50;97184.00;;;;8380349;28;20596;-68
2022/08/10 04:43:41;;;;;;;3.40;3.10;;;;;16.50;97187.00;;;;8379849;28;20632;-69
2022/08/10 04:47:44;;;;;;;3.47;3.20;;;;;16.40;97187.00;;;;8369531;28;20234;-68
2022/08/10 04:52:04;;;;;;;5.20;2.92;;;;;16.40;97194.00;;;;8382788;28;20232;-69
2022/08/10 04:56:08;;;;;;;3.97;3.03;;;;;16.40;97201.00;;;;8377716;28;20696;-68
2022/08/10 05:00:12;;;;;;;4.85;3.03;;;;;16.50;97192.00;;;;8377704;28;20233;-68
2022/08/10 05:04:21;;;;;;;3.63;3.28;;;;;16.60;97196.00;;;;8379197;28;20229;-68
2022/08/10 05:08:42;;;;;;;3.10;2.80;;;;;16.70;97191.00;;;;8382449;28;20233;-68
2022/08/10 05:12:45;;;;;;;3.70;3.30;;;;;16.80;97190.00;;;;8383313;28;20229;-68
2022/08/10 05:16:49;;;;;;;3.40;2.90;;;;;16.90;97201.00;;;;8379154;28;20229;-68
2022/08/10 05:20:52;;;;;;;5.55;2.85;;;;;17.00;97193.00;;;;8384594;28;20707;-68
2022/08/10 05:24:56;;;;;;;3.70;3.17;;;;;17.10;97197.00;;;;8378819;28;20240;-67
2022/08/10 05:29:00;;;;;;;3.28;2.97;;;;;17.20;97200.00;;;;8374646;28;20686;-67
2022/08/10 05:33:03;;;;;;;5.47;3.00;;;;;17.30;97197.00;;;;8379445;28;20225;-67
2022/08/10 05:37:11;;;;;;;4.13;2.65;;;;;17.50;97191.00;;;;8372540;28;21973;-71
2022/08/10 05:41:37;;;;;;;5.10;2.75;;;;;17.60;97196.00;;;;8380559;28;20232;-70
2022/08/10 05:45:47;;;;;;;3.30;2.60;;;;;17.70;97190.00;;;;8376208;28;20220;-71
2022/08/10 05:50:12;;;;;;;3.35;2.50;;;;;17.90;97193.00;;;;8373873;28;20295;-72
2022/08/10 05:54:16;;;;;;;4.53;2.63;;;;;18.20;97188.00;;;;8375682;28;20227;-71
2022/08/10 05:58:20;;;;;;;3.25;2.95;;;;;18.30;97199.00;;;;8373472;28;20229;-71
2022/08/10 06:02:32;;;;;;;3.63;2.70;;;;;18.30;97183.00;;;;8370652;28;20274;-71
2022/08/10 06:06:38;;;;;;;4.03;2.55;;;;;18.40;97188.00;;;;8385241;28;20230;-71
2022/08/10 06:10:43;;;;;;;3.78;2.60;;;;;18.70;97194.00;;;;8375573;28;20249;-71
2022/08/10 06:15:11;;;;;;;5.57;2.75;;;;;18.90;97187.00;;;;8378065;28;20222;-71
2022/08/10 06:19:25;;;;;;;7.72;2.72;;;;;19.20;97196.00;;;;8387419;28;20238;-71
2022/08/10 06:23:30;;;;;;;2.63;2.25;;;;;19.50;97198.00;;;;8374073;28;20224;-71
2022/08/10 06:27:34;;;;;;;3.17;2.88;;;;;19.70;97199.00;;;;8380829;28;20608;-71
2022/08/10 06:31:42;;;;;;;2.88;2.65;;;;;20.00;97206.00;;;;8374564;28;20231;-71
2022/08/10 06:35:55;;;;;;;4.15;2.63;;;;;20.30;97204.00;;;;8376874;28;20669;-71
2022/08/10 06:39:58;;;;;;;4.72;2.95;;;;;20.50;97212.00;;;;8374912;28;20234;-72
2022/08/10 06:44:06;;;;;;;2.47;2.30;;;;;20.80;97207.00;;;;8379024;28;20604;-72
2022/08/10 06:48:19;;;;;;;5.15;2.42;;;;;21.00;97212.00;;;;8377853;28;20314;-72
2022/08/10 06:52:23;;;;;;;3.25;2.50;;;;;21.20;97208.00;;;;8373226;28;20223;-72
2022/08/10 06:56:30;;;;;;;6.25;2.60;;;;;21.50;97207.00;;;;8382592;28;20224;-72
2022/08/10 07:00:43;;;;;;;3.88;2.33;;;;;21.80;97209.00;;;;8369816;28;20224;-72
2022/08/10 07:04:54;;;;;;;4.30;2.65;;;;;22.10;97210.00;;;;8403615;28;20229;-72
2022/08/10 07:09:00;;;;;;;6.57;2.40;;;;;22.40;97202.00;;;;8412230;28;20227;-72
2022/08/10 07:13:05;;;;;;;3.30;2.83;;;;;22.90;97199.00;;;;8410684;28;20219;-71
2022/08/10 07:17:11;;;;;;;3.17;2.35;;;;;23.40;97197.00;;;;8405426;28;20226;-72
2022/08/10 07:21:20;;;;;;;5.13;2.72;;;;;24.00;97198.00;;;;8411580;28;20231;-72
2022/08/10 07:25:26;;;;;;;4.10;2.38;;;;;24.60;97198.00;;;;8408922;28;20221;-72
2022/08/10 07:29:31;;;;;;;3.45;2.45;;;;;25.10;97201.00;;;;8408803;28;20307;-72
2022/08/10 07:33:56;;;;;;;3.13;2.17;;;;;25.80;97204.00;;;;8410001;28;20356;-72
2022/08/10 07:38:02;;;;;;;6.68;2.53;;;;;26.20;97212.00;;;;8408873;28;20241;-73
2022/08/10 07:42:09;;;;;;;4.85;2.42;;;;;26.70;97207.00;;;;8377637;28;20302;-72
2022/08/10 07:46:15;;;;;;;3.22;2.20;;;;;27.10;97210.00;;;;8374764;28;20302;-72
2022/08/10 07:50:20;;;;;;;2.50;2.30;;;;;27.50;97213.00;;;;8377751;28;20222;-73
2022/08/10 07:54:27;;;;;;;6.38;2.20;;;;;27.90;97207.00;;;;8380950;28;20902;-73
2022/08/10 07:58:35;;;;;;;3.10;2.30;;;;;28.30;97213.00;;;;8374582;28;20592;-73
2022/08/10 08:02:44;;;;;;;2.17;1.90;;;;;28.50;97213.00;;;;8378607;28;20231;-72
2022/08/10 08:06:49;;;;;;;2.17;1.98;;;;;28.50;97208.00;;;;8384208;28;20242;-73
2022/08/10 08:10:57;;;;;;;4.25;1.92;;;;;28.80;97204.00;;;;8379166;28;20228;-73
2022/08/10 08:15:02;;;;;;;6.72;2.10;;;;;29.40;97209.00;;;;8380786;28;20228;-73
2022/08/10 08:19:27;;;;;;;3.22;1.98;;;;;29.80;97214.00;;;;8380139;28;20235;-72
2022/08/10 08:23:49;;;;;;;3.00;1.90;;;;;30.10;97218.00;;;;8379575;28;20224;-73
2022/08/10 08:28:15;;;;;;;3.63;1.83;;;;;30.30;97218.00;;;;8374265;28;20223;-73
2022/08/10 08:32:22;;;;;;;4.30;1.98;;;;;30.40;97220.00;;;;8378182;28;20222;-73
2022/08/10 08:36:26;;;;;;;4.95;2.00;;;;;30.40;97209.00;;;;8383082;28;20336;-73
2022/08/10 08:40:32;;;;;;;5.60;2.15;;;;;30.50;97208.00;;;;8371727;28;20676;-74
2022/08/10 08:44:50;;;;;;;1.90;1.80;;;;;31.10;97209.00;;;;8380148;28;20231;-74
2022/08/10 08:49:46;;;;;;;5.28;2.10;;;;;31.70;97216.00;;;;8368917;28;20312;-74
2022/08/10 08:54:22;;;;;;;4.28;2.10;;;;;32.30;97210.00;;;;8357333;28;20215;-74
2022/08/10 08:58:38;;;;;;;6.75;1.98;;;;;32.60;97211.00;;;;8399300;28;20250;-74
2022/08/10 09:03:10;;;;;;;3.83;1.90;;;;;32.90;97213.00;;;;8379378;28;20232;-74
2022/08/10 09:07:51;;;;;;;3.40;1.77;;;;;32.90;97205.00;;;;8410927;28;20251;-74
2022/08/10 09:12:22;;;;;;;3.33;2.00;;;;;32.90;97203.00;;;;8382568;28;20306;-74
2022/08/10 09:16:32;;;;;;;3.42;1.92;;;;;33.00;97196.00;;;;8373361;28;20231;-75
2022/08/10 09:20:42;;;;;;;7.60;2.00;;;;;32.00;97199.00;;;;8382228;28;20232;-75
2022/08/10 09:24:50;;;;;;;11.07;2.10;;;;;31.50;97189.00;;;;8380747;28;20670;-74
2022/08/10 09:28:57;;;;;;;1.80;1.70;;;;;31.60;97201.00;;;;8378617;28;20271;-74
2022/08/10 09:33:20;;;;;;;6.20;2.03;;;;;30.20;97206.00;;;;8378202;28;20315;-75
2022/08/10 09:37:52;;;;;;;2.03;1.92;;;;;30.60;97200.00;;;;8381636;28;20588;-74
2022/08/10 09:42:09;;;;;;;4.15;1.70;;;;;31.60;97194.00;;;;8380308;28;20228;-74
2022/08/10 09:46:27;;;;;;;5.47;2.05;;;;;30.90;97193.00;;;;8394487;28;20756;-74
2022/08/10 09:50:37;;;;;;;2.22;1.80;;;;;31.50;97195.00;;;;8396374;28;20335;-75
2022/08/10 09:55:11;;;;;;;7.55;2.13;;;;;30.50;97192.00;;;;8399693;28;20719;-75
2022/08/10 09:59:23;;;;;;;2.15;1.98;;;;;29.20;97178.00;;;;8374426;28;20212;-74
2022/08/10 10:03:55;;;;;;;3.17;1.90;;;;;28.30;97181.00;;;;8374354;28;20288;-73
2022/08/10 10:08:07;;;;;;;4.03;1.85;;;;;29.00;97177.00;;;;8395601;28;20227;-73
2022/08/10 10:12:24;;;;;;;5.72;1.83;;;;;28.50;97177.00;;;;8354660;28;20716;-73
2022/08/10 10:16:52;;;;;;;2.97;1.90;;;;;27.70;97168.00;;;;8337308;28;20224;-74
2022/08/10 10:21:03;;;;;;;2.10;1.90;;;;;27.50;97158.00;;;;8346112;28;20311;-75
2022/08/10 10:25:13;;;;;;;6.20;2.03;;;;;27.20;97166.00;;;;8348470;28;20324;-73
2022/08/10 10:29:37;;;;;;;2.22;1.80;;;;;26.90;97148.00;;;;8342781;28;20304;-72
2022/08/10 10:34:10;;;;;;;2.10;1.95;;;;;27.00;97152.00;;;;8378756;28;20224;-74
2022/08/10 10:38:13;;;;;;;4.07;1.90;;;;;27.40;97144.00;;;;8375597;28;20247;-74
2022/08/10 10:42:35;;;;;;;3.20;1.85;;;;;27.40;97142.00;;;;8380088;28;20604;-73
2022/08/10 10:47:18;;;;;;;2.60;1.92;;;;;27.80;97147.00;;;;8345358;28;20577;-74
2022/08/10 10:51:27;;;;;;;3.72;1.83;;;;;27.80;97140.00;;;;8344654;28;20228;-73
2022/08/10 10:55:38;;;;;;;2.85;1.60;;;;;27.90;97140.00;;;;8348150;28;20229;-73
2022/08/10 11:00:06;;;;;;;1.73;1.63;;;;;29.00;97135.00;;;;8375938;28;20239;-73
2022/08/10 11:04:20;;;;;;;4.07;1.92;;;;;30.10;97139.00;;;;8399925;28;20223;-72
2022/08/10 11:08:26;;;;;;;5.75;1.90;;;;;29.90;97135.00;;;;8410626;28;20219;-73
2022/08/10 11:12:39;;;;;;;2.10;1.98;;;;;29.80;97127.00;;;;8409128;28;20692;-73
2022/08/10 11:16:57;;;;;;;3.55;1.98;;;;;29.50;97139.00;;;;8411827;28;20219;-73
2022/08/10 11:21:12;;;;;;;2.83;2.05;;;;;29.50;97136.00;;;;8410475;28;20330;-73
2022/08/10 11:25:26;;;;;;;1.60;1.60;;;;;29.90;97145.00;;;;8406590;28;20619;-72
2022/08/10 11:29:36;;;;;;;2.50;1.67;;;;;30.10;97142.00;;;;8408415;28;20224;-73
2022/08/10 11:33:53;;;;;;;1.90;1.60;;;;;30.30;97140.00;;;;8414103;28;20257;-73
2022/08/10 11:38:27;;;;;;;1.90;1.80;;;;;30.30;97143.00;;;;8410616;28;20253;-72
2022/08/10 11:42:47;;;;;;;4.38;2.10;;;;;30.20;97135.00;;;;8414698;28;20691;-73
2022/08/10 11:46:57;;;;;;;2.15;1.95;;;;;29.90;97140.00;;;;8411178;28;20220;-73
2022/08/10 11:51:04;;;;;;;1.70;1.60;;;;;29.70;97136.00;;;;8415937;28;20225;-73
2022/08/10 11:55:16;;;;;;;2.30;1.83;;;;;29.80;97136.00;;;;8416151;28;20223;-73
2022/08/10 12:03:47;;;;;;;4.20;2.38;;;;;30.80;97119.00;;;;8379346;28;20282;-70
2022/08/10 12:07:56;;;;;;;1.83;1.73;;;;;32.90;97114.00;;;;8383482;28;20959;-73
2022/08/10 12:12:23;;;;;;;3.15;1.80;;;;;32.50;97120.00;;;;8375888;28;20228;-74
2022/08/10 12:16:28;;;;;;;3.08;1.88;;;;;31.80;97124.00;;;;8385372;28;20219;-73
2022/08/10 12:20:34;;;;;;;1.88;1.77;;;;;31.30;97125.00;;;;8384377;28;20877;-73
2022/08/10 12:24:42;;;;;;;4.07;2.08;;;;;31.10;97119.00;;;;8379753;28;20675;-73
2022/08/10 12:28:53;;;;;;;1.80;1.70;;;;;30.90;97115.00;;;;8392713;28;20307;-74
2022/08/10 12:33:02;;;;;;;4.28;1.75;;;;;31.10;97104.00;;;;8378829;28;21101;-73
2022/08/10 12:37:14;;;;;;;3.65;2.05;;;;;31.80;97089.00;;;;8375962;28;20242;-75
2022/08/10 12:41:23;;;;;;;2.35;1.80;;;;;31.90;97097.00;;;;8374677;28;20228;-74
2022/08/10 12:45:59;;;;;;;2.38;1.90;;;;;31.70;97097.00;;;;8378922;28;20277;-74
2022/08/10 12:50:18;;;;;;;3.83;1.73;;;;;31.60;97087.00;;;;8380554;28;20243;-74
2022/08/10 12:54:36;;;;;;;2.10;1.92;;;;;31.40;97085.00;;;;8381794;28;20499;-73
2022/08/10 12:58:42;;;;;;;5.07;2.10;;;;;31.30;97078.00;;;;8377651;28;20227;-75
2022/08/10 13:03:06;;;;;;;4.75;2.17;;;;;30.70;97077.00;;;;8399441;28;20302;-74
2022/08/10 13:07:10;;;;;;;2.97;1.80;;;;;30.30;97088.00;;;;8407781;28;20247;-72
2022/08/10 13:11:36;;;;;;;2.50;1.73;;;;;30.20;97088.00;;;;8410143;28;20300;-74
2022/08/10 13:15:59;;;;;;;3.28;1.67;;;;;30.20;97080.00;;;;8415400;28;20223;-72
2022/08/10 13:20:14;;;;;;;3.40;2.20;;;;;30.40;97077.00;;;;8414966;28;20219;-74
2022/08/10 13:24:23;;;;;;;2.25;1.80;;;;;30.50;97081.00;;;;8414008;28;20299;-74
2022/08/10 13:28:36;;;;;;;2.35;2.05;;;;;30.70;97079.00;;;;8412547;28;20253;-74
2022/08/10 13:32:49;;;;;;;2.25;1.80;;;;;31.00;97077.00;;;;8376201;28;20323;-73
2022/08/10 13:36:57;;;;;;;2.50;1.60;;;;;31.60;97070.00;;;;8372520;28;20307;-74
2022/08/10 13:41:01;;;;;;;2.15;1.90;;;;;32.10;97060.00;;;;8379609;28;20224;-74
2022/08/10 13:45:09;;;;;;;1.98;1.88;;;;;32.40;97067.00;;;;8367195;28;20943;-74
2022/08/10 13:49:14;;;;;;;4.85;1.90;;;;;32.40;97066.00;;;;8380873;28;20636;-72
2022/08/10 13:53:20;;;;;;;2.20;2.10;;;;;32.30;97061.00;;;;8374945;28;20236;-74
2022/08/10 13:57:26;;;;;;;4.53;1.80;;;;;33.30;97046.00;;;;8379775;28;20220;-74
2022/08/10 14:01:32;;;;;;;2.28;1.70;;;;;34.50;97040.00;;;;8382961;28;20618;-74
2022/08/10 14:05:38;;;;;;;1.95;1.88;;;;;35.30;97037.00;;;;8414148;28;20250;-73
2022/08/10 14:09:46;;;;;;;2.25;1.70;;;;;34.90;97048.00;;;;8410853;28;20759;-75
2022/08/10 14:13:53;;;;;;;1.75;1.65;;;;;34.30;97044.00;;;;8409565;28;20226;-74
2022/08/10 14:17:59;;;;;;;1.75;1.65;;;;;34.10;97042.00;;;;8410003;28;20314;-74
2022/08/10 14:22:02;;;;;;;3.95;1.70;;;;;33.90;97042.00;;;;8413448;28;20235;-75
2022/08/10 14:26:09;;;;;;;1.63;1.52;;;;;33.60;97044.00;;;;8410510;28;20219;-74
2022/08/10 14:30:18;;;;;;;1.70;1.60;;;;;33.30;97041.00;;;;8411154;28;20229;-74
2022/08/10 14:34:26;;;;;;;3.53;1.90;;;;;32.80;97042.00;;;;8406267;28;20235;-75
2022/08/10 14:38:54;;;;;;;3.22;1.83;;;;;32.60;97033.00;;;;8411170;28;20299;-74
2022/08/10 14:43:01;;;;;;;1.92;1.70;;;;;33.50;97024.00;;;;8397340;28;20231;-76
2022/08/10 14:47:06;;;;;;;1.92;1.77;;;;;34.30;97026.00;;;;8408071;28;20218;-76
2022/08/10 14:51:30;;;;;;;1.90;1.80;;;;;33.90;97031.00;;;;8407148;28;20210;-75
2022/08/10 14:55:48;;;;;;;2.25;1.70;;;;;33.30;97015.00;;;;8394385;28;20225;-73
2022/08/10 15:00:05;;;;;;;3.67;1.92;;;;;32.50;97017.00;;;;8408533;28;20226;-72
2022/08/10 15:04:29;;;;;;;2.97;1.80;;;;;31.80;97021.00;;;;8407170;28;20231;-74
2022/08/10 15:08:33;;;;;;;2.15;1.98;;;;;31.60;97013.00;;;;8405936;28;20606;-74
2022/08/10 15:12:40;;;;;;;3.05;2.10;;;;;32.70;97005.00;;;;8400374;28;20219;-74
2022/08/10 15:16:46;;;;;;;1.60;1.60;;;;;33.40;97014.00;;;;8405829;28;20219;-69
2022/08/10 15:20:54;;;;;;;1.77;1.70;;;;;33.10;97005.00;;;;8405432;28;20728;-70
2022/08/10 15:25:05;;;;;;;2.33;2.13;;;;;32.70;97003.00;;;;8409907;28;20238;-69
2022/08/10 15:29:22;;;;;;;2.50;1.90;;;;;32.00;96998.00;;;;8406962;28;20227;-69
2022/08/10 15:38:08;;;;;;;2.67;1.90;;;;;31.10;96984.00;;;;8363414;28;20289;-69
2022/08/10 15:42:19;;;;;;;1.92;1.80;;;;;31.70;96978.00;;;;8372508;28;20223;-71
2022/08/10 15:46:32;;;;;;;1.70;1.60;;;;;32.60;96978.00;;;;8368121;28;20311;-71
2022/08/10 15:50:43;;;;;;;3.15;2.00;;;;;33.60;96987.00;;;;8373138;28;20256;-71
2022/08/10 15:54:54;;;;;;;2.00;1.90;;;;;33.80;96974.00;;;;8368838;28;20234;-72
2022/08/10 15:59:08;;;;;;;2.33;1.88;;;;;33.90;96974.00;;;;8372680;28;20216;-71
2022/08/10 16:03:16;;;;;;;2.88;1.67;;;;;33.80;96976.00;;;;8391616;28;20310;-71
2022/08/10 16:07:30;;;;;;;1.80;1.70;;;;;33.30;96975.00;;;;8403257;28;20249;-71
2022/08/10 16:11:59;;;;;;;1.77;1.67;;;;;32.30;96973.00;;;;8407273;28;20245;-71
2022/08/10 16:16:06;;;;;;;1.83;1.73;;;;;31.70;96973.00;;;;8408342;28;20690;-71
2022/08/10 16:20:11;;;;;;;1.70;1.40;;;;;31.20;96975.00;;;;8415563;28;20295;-71
2022/08/10 16:24:16;;;;;;;2.63;1.70;;;;;30.60;96972.00;;;;8413606;28;20247;-71
2022/08/10 16:28:20;;;;;;;3.08;1.98;;;;;30.10;96966.00;;;;8416344;28;20223;-71
2022/08/10 16:32:27;;;;;;;1.70;1.60;;;;;29.80;96968.00;;;;8413354;28;20223;-71
2022/08/10 16:36:34;;;;;;;3.35;1.73;;;;;30.00;96960.00;;;;8412715;28;20575;-71
2022/08/10 16:40:40;;;;;;;2.92;1.90;;;;;31.10;96961.00;;;;8412546;28;20225;-71
2022/08/10 16:44:51;;;;;;;2.10;2.00;;;;;31.90;96966.00;;;;8415526;28;20314;-71
2022/08/10 16:48:59;;;;;;;2.50;1.83;;;;;31.80;96960.00;;;;8400109;28;20228;-74
2022/08/10 16:53:07;;;;;;;1.80;1.70;;;;;31.70;96960.00;;;;8406540;28;20236;-75
2022/08/10 16:57:13;;;;;;;2.03;1.92;;;;;32.10;96960.00;;;;8414976;28;20710;-73
2022/08/10 17:01:18;;;;;;;2.38;1.83;;;;;32.40;96950.00;;;;8403205;28;20223;-74
2022/08/10 17:05:24;;;;;;;3.83;2.10;;;;;32.50;96956.00;;;;8389996;28;20235;-74
2022/08/10 17:09:50;;;;;;;1.92;1.70;;;;;32.20;96961.00;;;;8396943;28;20264;-73
2022/08/10 17:13:57;;;;;;;1.98;1.88;;;;;31.70;96958.00;;;;8408974;28;20230;-73
2022/08/10 17:18:03;;;;;;;2.65;1.83;;;;;32.00;96951.00;;;;8406156;28;20211;-74
2022/08/10 17:22:16;;;;;;;2.10;2.00;;;;;32.30;96952.00;;;;8409157;28;20339;-74
2022/08/10 17:26:22;;;;;;;3.47;2.03;;;;;32.40;96954.00;;;;8410435;28;20250;-74
2022/08/10 17:30:48;;;;;;;2.10;1.80;;;;;32.40;96952.00;;;;8405733;28;20302;-74
2022/08/10 17:35:02;;;;;;;1.90;1.80;;;;;31.70;96958.00;;;;8405287;28;20231;-73
2022/08/10 17:39:11;;;;;;;4.07;2.17;;;;;31.40;96953.00;;;;8404511;28;20241;-75
2022/08/10 17:43:20;;;;;;;2.13;1.98;;;;;30.70;96966.00;;;;8409626;28;20913;-73
2022/08/10 17:47:49;;;;;;;2.10;2.00;;;;;29.90;96963.00;;;;8404512;28;20283;-74
2022/08/10 17:51:56;;;;;;;3.20;1.90;;;;;29.20;96956.00;;;;8405881;28;20347;-73
2022/08/10 17:56:00;;;;;;;2.33;2.08;;;;;28.60;96960.00;;;;8406355;28;20223;-73
2022/08/10 18:00:06;;;;;;;4.85;2.08;;;;;28.00;96964.00;;;;8407881;28;20249;-73
2022/08/10 18:04:17;;;;;;;3.55;2.15;;;;;27.60;96969.00;;;;8401755;28;20228;-73
2022/08/10 18:08:24;;;;;;;7.07;2.25;;;;;27.20;96969.00;;;;8383837;28;20227;-72
2022/08/10 18:12:32;;;;;;;8.10;2.33;;;;;26.80;96972.00;;;;8404924;28;20219;-74
2022/08/10 18:16:42;;;;;;;4.57;2.08;;;;;26.50;96968.00;;;;8411750;28;20231;-73
2022/08/10 18:20:47;;;;;;;2.55;2.30;;;;;26.20;96968.00;;;;8408145;28;20224;-73
2022/08/10 18:24:52;;;;;;;2.25;2.05;;;;;25.90;96975.00;;;;8405686;28;20235;-74
2022/08/10 18:28:57;;;;;;;3.15;2.30;;;;;25.70;96972.00;;;;8409777;28;20223;-75
2022/08/10 18:33:01;;;;;;;2.35;2.17;;;;;25.50;96971.00;;;;8410024;28;20227;-74
2022/08/10 18:37:09;;;;;;;2.78;2.40;;;;;25.30;96971.00;;;;8408184;28;20688;-73
2022/08/10 18:41:18;;;;;;;3.13;2.33;;;;;25.20;96970.00;;;;8407838;28;20319;-74
2022/08/10 18:45:24;;;;;;;3.15;2.33;;;;;25.00;96978.00;;;;8400375;28;20239;-75
2022/08/10 18:49:31;;;;;;;5.75;2.80;;;;;24.90;96983.00;;;;8406261;28;20281;-74
2022/08/10 18:53:46;;;;;;;2.78;2.20;;;;;24.80;96987.00;;;;8407422;28;20323;-74
2022/08/10 18:58:26;;;;;;;4.30;2.38;;;;;24.70;96987.00;;;;8401303;28;20334;-72
2022/08/10 19:02:54;;;;;;;6.35;2.35;;;;;24.60;96989.00;;;;8400449;28;20218;-73
2022/08/10 19:07:39;;;;;;;2.75;2.28;;;;;24.50;96993.00;;;;8396065;28;20231;-73
2022/08/10 19:11:59;;;;;;;8.32;2.63;;;;;24.40;97002.00;;;;8394157;28;20210;-73
2022/08/10 19:16:11;;;;;;;8.85;2.78;;;;;24.30;97007.00;;;;8376842;28;20626;-72
2022/08/10 19:20:23;;;;;;;4.13;2.50;;;;;24.20;97007.00;;;;8376203;28;20216;-72
2022/08/10 19:24:44;;;;;;;3.55;2.80;;;;;24.10;97007.00;;;;8398204;28;20711;-72
2022/08/10 19:29:01;;;;;;;7.50;2.92;;;;;24.00;97003.00;;;;8404506;28;20811;-73
2022/08/10 19:33:17;;;;;;;3.10;2.55;;;;;23.90;97003.00;;;;8374125;28;20474;-73
2022/08/10 19:37:29;;;;;;;2.70;2.30;;;;;23.90;97012.00;;;;8370353;28;20222;-73
2022/08/10 19:41:42;;;;;;;7.68;2.10;;;;;23.70;97000.00;;;;8373284;28;20220;-72
2022/08/10 19:45:57;;;;;;;3.15;2.42;;;;;23.60;97009.00;;;;8378761;28;20305;-72
2022/08/10 19:50:09;;;;;;;3.22;2.70;;;;;23.40;97002.00;;;;8369417;28;20691;-73
2022/08/10 19:54:20;;;;;;;5.88;2.45;;;;;23.10;97005.00;;;;8395758;28;20232;-73
2022/08/10 19:58:31;;;;;;;2.60;2.40;;;;;22.90;97009.00;;;;8375898;28;20223;-73
2022/08/10 20:02:46;;;;;;;3.97;2.63;;;;;22.80;97001.00;;;;8379453;28;20235;-72
2022/08/10 20:07:01;;;;;;;4.97;3.05;;;;;22.60;97000.00;;;;8381874;28;20754;-73
2022/08/10 20:11:09;;;;;;;5.43;2.88;;;;;22.40;96999.00;;;;8380659;28;20223;-73
2022/08/10 20:15:37;;;;;;;3.50;2.30;;;;;22.30;97000.00;;;;8371117;28;20232;-74
2022/08/10 20:19:53;;;;;;;2.63;2.42;;;;;22.10;97002.00;;;;8377286;28;20239;-72
2022/08/10 20:24:04;;;;;;;5.78;2.40;;;;;21.80;96999.00;;;;8369082;28;20270;-72
2022/08/10 20:28:17;;;;;;;2.70;2.50;;;;;21.70;96988.00;;;;8389294;28;20307;-73
2022/08/10 20:32:24;;;;;;;7.55;2.30;;;;;21.60;96997.00;;;;8362594;28;21159;-73
2022/08/10 20:36:33;;;;;;;10.85;3.38;;;;;21.70;96990.00;;;;8381422;28;20240;-73
2022/08/10 20:40:45;;;;;;;6.18;2.40;;;;;21.60;97003.00;;;;8382582;28;20228;-72
2022/08/10 20:44:58;;;;;;;6.97;2.92;;;;;21.60;97004.00;;;;8381659;28;20239;-73
2022/08/10 20:49:11;;;;;;;3.10;2.78;;;;;21.40;97002.00;;;;8379328;28;20232;-72
2022/08/10 20:53:20;;;;;;;2.70;2.28;;;;;21.20;97004.00;;;;8374024;28;20236;-73
2022/08/10 20:57:39;;;;;;;7.22;3.13;;;;;21.10;97003.00;;;;8375372;28;20743;-72
2022/08/10 21:02:18;;;;;;;2.60;2.40;;;;;20.80;97001.00;;;;8387899;28;20751;-74
2022/08/10 21:06:42;;;;;;;3.53;2.85;;;;;20.60;96990.00;;;;8398165;28;20251;-73
2022/08/10 21:11:02;;;;;;;3.35;2.72;;;;;20.40;96990.00;;;;8413551;28;20610;-73
2022/08/10 21:15:19;;;;;;;2.63;2.42;;;;;20.40;96987.00;;;;8409160;28;20233;-71